Terminal Aerodrome Forecast
Issued by NWS Chicago, IL

Home | Current Version | Previous Version | Graphics & Text | Print | Product List | Glossary On
Versions: 1 2 3 4 5 6 7 8 9 10 11 12 13 14 15 16 17 18 19 20 21 22 23 24 25 26 27 28
000
FTUS43 KLOT 252103 AAB
TAFRFD
TAF AMD
KRFD 252103Z 2521/2618 29017G27KT P6SM BKN029 OVC035
     FM252300 29011G17KT P6SM SCT030
     FM260100 28008KT P6SM SCT150
     FM260700 20007KT P6SM BKN090
     FM261300 20016G24KT P6SM BKN060
     FM261700 21018G28KT P6SM SCT060=

USA.gov is the U.S. government's official web portal to all federal, state and local government web resources and services.